Time;durP1;ratioP1;P1;durP2;ratioP2;P2;SDS_P1;SDS_P2;PMS_P1;PMS_P2;Temp;Humidity;BMP_temperature;BMP_pressure;BME280_temperature;BME280_humidity;BME280_pressure;Samples;Min_cycle;Max_cycle;Signal;HPM_P1;HPM_P2
2021/08/15 00:00:55;;;;;;;15.77;9.40;;;;;;;20.89;100.00;96811.59;5040011;28;20052;-66
2021/08/15 00:03:21;;;;;;;21.25;9.55;;;;;;;20.76;100.00;96814.28;5045389;28;20396;-66
2021/08/15 00:05:46;;;;;;;19.42;9.27;;;;;;;20.76;100.00;96817.06;5059295;28;20036;-66
2021/08/15 00:08:12;;;;;;;20.80;9.52;;;;;;;20.53;100.00;96808.78;5053898;28;20042;-66
2021/08/15 00:10:40;;;;;;;18.80;9.98;;;;;;;20.35;100.00;96815.50;5059117;28;20051;-66
2021/08/15 00:13:08;;;;;;;14.57;9.48;;;;;;;20.35;100.00;96809.94;5051338;28;20044;-67
2021/08/15 00:15:33;;;;;;;14.27;8.95;;;;;;;20.44;100.00;96809.38;5041387;28;20041;-65
2021/08/15 00:17:59;;;;;;;15.02;8.68;;;;;;;20.55;100.00;96806.34;5036468;28;20053;-65
2021/08/15 00:20:25;;;;;;;16.98;9.73;;;;;;;20.63;100.00;96802.22;5034010;28;20036;-66
2021/08/15 00:22:51;;;;;;;16.42;9.05;;;;;;;20.75;100.00;96804.34;5021729;28;20037;-65
2021/08/15 00:25:17;;;;;;;22.58;9.57;;;;;;;20.76;100.00;96800.34;5024633;28;20050;-65
2021/08/15 00:27:45;;;;;;;20.67;9.55;;;;;;;20.64;100.00;96801.03;5038920;28;20037;-66
2021/08/15 00:30:11;;;;;;;18.48;8.43;;;;;;;20.54;100.00;96807.56;5032287;28;20045;-66
2021/08/15 00:32:38;;;;;;;28.23;10.18;;;;;;;20.52;100.00;96796.84;5036126;28;20048;-66
2021/08/15 00:35:05;;;;;;;18.00;9.63;;;;;;;20.52;100.00;96794.06;5035645;28;20575;-67
2021/08/15 00:37:31;;;;;;;21.50;9.50;;;;;;;20.63;100.00;96793.88;5038505;28;20056;-66
2021/08/15 00:39:57;;;;;;;21.55;9.50;;;;;;;20.75;100.00;96795.22;5037524;28;20043;-66
2021/08/15 00:42:22;;;;;;;22.13;9.77;;;;;;;20.81;100.00;96793.47;5014520;28;20639;-66
2021/08/15 00:44:48;;;;;;;19.73;8.63;;;;;;;20.90;100.00;96790.09;5029792;28;20072;-66
2021/08/15 00:47:14;;;;;;;15.98;9.70;;;;;;;20.69;100.00;96796.94;5024218;28;20059;-66
2021/08/15 00:49:39;;;;;;;18.25;9.65;;;;;;;20.32;100.00;96793.31;5024651;28;20509;-66
2021/08/15 00:52:05;;;;;;;15.63;9.68;;;;;;;20.26;100.00;96798.63;5024135;28;20072;-66
2021/08/15 00:54:32;;;;;;;18.30;9.15;;;;;;;20.34;100.00;96791.66;5031455;28;20075;-65
2021/08/15 00:57:00;;;;;;;17.00;10.45;;;;;;;20.38;100.00;96789.63;5036773;28;20166;-65
2021/08/15 00:59:26;;;;;;;17.90;10.32;;;;;;;20.52;100.00;96790.50;5033834;28;20471;-66
2021/08/15 01:01:52;;;;;;;17.38;9.23;;;;;;;20.70;100.00;96788.16;5038911;28;20040;-66
2021/08/15 01:04:25;;;;;;;19.85;8.63;;;;;;;20.85;100.00;96787.81;5031794;28;20051;-67
2021/08/15 01:06:51;;;;;;;23.48;9.30;;;;;;;20.75;100.00;96784.09;5039560;28;20059;-66
2021/08/15 01:09:17;;;;;;;21.85;9.75;;;;;;;20.50;100.00;96779.81;5030230;28;20086;-65
2021/08/15 01:11:42;;;;;;;19.33;9.80;;;;;;;20.20;100.00;96778.06;5028988;28;20041;-66
2021/08/15 01:14:09;;;;;;;17.23;9.68;;;;;;;20.12;100.00;96774.66;5019711;28;20033;-65
2021/08/15 01:16:38;;;;;;;29.33;11.73;;;;;;;19.99;100.00;96763.41;5020920;28;20115;-65
2021/08/15 01:19:04;;;;;;;;;;;;;;;19.97;100.00;96762.22;5034775;28;20490;-66
2021/08/15 01:21:29;;;;;;;30.17;12.20;;;;;;;19.80;100.00;96764.94;5038004;28;19923;-66
2021/08/15 01:23:54;;;;;;;28.85;11.27;;;;;;;19.64;100.00;96762.03;5038971;28;20051;-69
2021/08/15 01:26:21;;;;;;;25.38;10.15;;;;;;;19.69;100.00;96767.13;5033874;28;20445;-65
2021/08/15 01:28:48;;;;;;;21.63;11.02;;;;;;;19.70;100.00;96765.91;5038862;28;20044;-64
2021/08/15 01:31:14;;;;;;;22.38;10.55;;;;;;;19.64;100.00;96756.50;5036165;28;20503;-64
2021/08/15 01:33:40;;;;;;;24.65;10.93;;;;;;;19.30;100.00;96765.81;5040690;28;20044;-67
2021/08/15 01:36:07;;;;;;;23.13;12.80;;;;;;;19.33;100.00;96766.97;5030285;28;20045;-66
2021/08/15 01:38:36;;;;;;;23.02;10.85;;;;;;;19.41;100.00;96772.00;5038039;28;20061;-66
2021/08/15 01:41:03;;;;;;;23.85;11.00;;;;;;;19.44;100.00;96768.34;5037855;28;20636;-65
2021/08/15 01:43:30;;;;;;;22.10;10.88;;;;;;;19.48;100.00;96766.31;5027646;28;20037;-65
2021/08/15 01:45:56;;;;;;;19.33;10.88;;;;;;;19.43;100.00;96766.00;5039035;28;20040;-66
2021/08/15 01:48:21;;;;;;;20.17;12.15;;;;;;;19.45;100.00;96774.69;5024973;28;20717;-66
2021/08/15 01:50:48;;;;;;;18.55;10.82;;;;;;;19.60;100.00;96764.88;5031960;28;20459;-66
2021/08/15 01:53:20;;;;;;;20.17;11.68;;;;;;;19.61;100.00;96762.91;5025454;28;20052;-67
2021/08/15 01:55:45;;;;;;;23.70;12.55;;;;;;;19.52;100.00;96771.00;5041753;28;20036;-65
2021/08/15 01:58:12;;;;;;;27.02;13.15;;;;;;;19.31;100.00;96761.06;5037300;28;20045;-65
2021/08/15 02:00:40;;;;;;;23.98;12.43;;;;;;;19.35;100.00;96768.13;5036072;28;20120;-66
2021/08/15 02:03:07;;;;;;;19.65;12.77;;;;;;;19.35;100.00;96761.78;5033394;28;20784;-66
2021/08/15 02:05:33;;;;;;;25.65;13.18;;;;;;;19.38;100.00;96764.50;5025070;28;20048;-65
2021/08/15 02:08:00;;;;;;;22.35;11.18;;;;;;;19.50;100.00;96771.44;5039752;28;20040;-66
2021/08/15 02:10:28;;;;;;;25.88;10.85;;;;;;;19.60;100.00;96769.66;5035784;28;20267;-66
2021/08/15 02:12:56;;;;;;;20.90;9.57;;;;;;;19.72;100.00;96766.28;5021250;28;20120;-66
2021/08/15 02:15:22;;;;;;;19.98;10.57;;;;;;;19.73;100.00;96765.06;5035790;28;20267;-66
2021/08/15 02:17:47;;;;;;;21.73;10.57;;;;;;;19.44;100.00;96768.34;5040103;28;20049;-66
2021/08/15 02:20:15;;;;;;;21.63;10.20;;;;;;;19.50;100.00;96760.34;5036611;28;20044;-66
2021/08/15 02:22:42;;;;;;;22.10;9.30;;;;;;;19.60;100.00;96764.13;5041131;28;20105;-67
2021/08/15 02:25:09;;;;;;;22.15;10.18;;;;;;;19.63;100.00;96769.59;5037181;28;20053;-67
2021/08/15 02:27:35;;;;;;;21.15;10.73;;;;;;;19.59;100.00;96768.91;5040133;28;20049;-66
2021/08/15 02:30:00;;;;;;;21.17;10.77;;;;;;;19.49;100.00;96759.53;5042248;28;20043;-66
2021/08/15 02:32:26;;;;;;;29.30;11.23;;;;;;;19.45;100.00;96769.16;5032143;28;20635;-67
2021/08/15 02:34:51;;;;;;;19.67;10.15;;;;;;;19.43;100.00;96760.47;5041206;28;20448;-66
2021/08/15 02:37:18;;;;;;;26.90;10.38;;;;;;;19.37;100.00;96762.91;5035107;28;20110;-66
2021/08/15 02:39:44;;;;;;;17.90;9.80;;;;;;;19.42;100.00;96765.22;5035006;28;20495;-66
2021/08/15 02:42:09;;;;;;;21.90;11.30;;;;;;;19.47;100.00;96753.63;5028368;28;20052;-66
2021/08/15 02:44:35;;;;;;;21.05;11.05;;;;;;;19.34;100.00;96757.41;5039851;28;20047;-66
2021/08/15 02:47:00;;;;;;;19.67;11.50;;;;;;;19.19;100.00;96752.13;5031276;28;20041;-66
2021/08/15 02:49:26;;;;;;;30.73;12.10;;;;;;;19.02;100.00;96745.66;5041721;28;20041;-67
2021/08/15 02:51:51;;;;;;;24.98;12.00;;;;;;;18.97;100.00;96753.69;5040790;28;20044;-66
2021/08/15 02:54:17;;;;;;;18.48;10.63;;;;;;;19.06;100.00;96742.81;5035776;28;20037;-66
2021/08/15 02:56:42;;;;;;;20.67;10.55;;;;;;;19.19;100.00;96751.34;5034967;28;20049;-66
2021/08/15 02:59:07;;;;;;;20.92;10.20;;;;;;;19.32;100.00;96748.72;5024838;28;20051;-68
2021/08/15 03:01:33;;;;;;;19.70;10.20;;;;;;;19.49;100.00;96744.88;5039967;28;20099;-67
2021/08/15 03:03:58;;;;;;;20.80;10.02;;;;;;;19.47;100.00;96745.28;5041774;28;20053;-66
2021/08/15 03:06:24;;;;;;;19.27;8.73;;;;;;;19.51;100.00;96731.34;5034464;28;20512;-67
2021/08/15 03:08:49;;;;;;;20.65;10.25;;;;;;;19.47;100.00;96736.19;5039915;28;20127;-66
2021/08/15 03:11:15;;;;;;;20.33;9.52;;;;;;;19.50;100.00;96738.13;5035288;28;20431;-65
2021/08/15 03:13:40;;;;;;;18.60;10.20;;;;;;;19.43;100.00;96725.13;5040463;28;20037;-65
2021/08/15 03:16:05;;;;;;;21.75;9.65;;;;;;;19.38;100.00;96725.63;5033203;28;20122;-65
2021/08/15 03:18:31;;;;;;;15.30;8.43;;;;;;;19.35;100.00;96728.47;5038506;28;20040;-65
2021/08/15 03:20:56;;;;;;;20.60;8.95;;;;;;;19.40;100.00;96727.97;5030112;28;20037;-65
2021/08/15 03:23:22;;;;;;;21.00;9.07;;;;;;;19.37;100.00;96734.38;5032528;28;21046;-65
2021/08/15 03:25:47;;;;;;;18.70;10.27;;;;;;;19.22;100.00;96729.06;5033479;28;20581;-65
2021/08/15 03:28:13;;;;;;;20.50;10.85;;;;;;;19.13;100.00;96739.16;5032619;28;20060;-66
2021/08/15 03:30:38;;;;;;;24.67;10.50;;;;;;;18.88;100.00;96732.00;5039506;28;20110;-66
2021/08/15 03:33:04;;;;;;;18.42;10.48;;;;;;;18.77;100.00;96736.94;5034860;28;20037;-66
2021/08/15 03:35:30;;;;;;;20.02;10.35;;;;;;;18.67;100.00;96733.91;5029330;28;20135;-66
2021/08/15 03:37:55;;;;;;;16.40;9.82;;;;;;;18.65;100.00;96727.19;5038551;28;20049;-65
2021/08/15 03:40:20;;;;;;;22.00;10.57;;;;;;;18.67;100.00;96739.44;5033864;28;20098;-65
2021/08/15 03:42:46;;;;;;;19.00;9.70;;;;;;;18.78;100.00;96732.94;5022600;28;20045;-65
2021/08/15 03:45:11;;;;;;;21.90;10.70;;;;;;;18.80;100.00;96730.50;5033278;28;20059;-65
2021/08/15 03:47:37;;;;;;;21.48;10.63;;;;;;;18.77;100.00;96725.81;5040561;28;20489;-65
2021/08/15 03:50:06;;;;;;;23.33;11.80;;;;;;;18.63;100.00;96732.38;5035706;28;20041;-66
2021/08/15 03:52:40;;;;;;;23.13;12.20;;;;;;;18.51;100.00;96728.97;5039546;28;20037;-66
2021/08/15 03:55:07;;;;;;;19.90;11.60;;;;;;;18.43;100.00;96724.72;5035542;28;20493;-65
2021/08/15 03:57:33;;;;;;;25.75;13.40;;;;;;;18.41;100.00;96715.28;5039984;28;20053;-66
2021/08/15 03:59:59;;;;;;;20.08;12.60;;;;;;;18.18;100.00;96722.28;5036392;28;20052;-66
2021/08/15 04:02:24;;;;;;;20.77;13.10;;;;;;;18.04;100.00;96711.41;5032791;28;20037;-66
2021/08/15 04:04:50;;;;;;;24.00;13.45;;;;;;;18.00;100.00;96711.44;5039212;28;20033;-65
2021/08/15 04:07:15;;;;;;;27.92;14.63;;;;;;;17.97;100.00;96720.59;5033170;28;20049;-67
2021/08/15 04:09:41;;;;;;;23.88;14.40;;;;;;;18.00;100.00;96716.22;5039864;28;20041;-66
2021/08/15 04:12:06;;;;;;;21.08;12.32;;;;;;;18.11;100.00;96716.84;5033103;28;20033;-66
2021/08/15 04:14:31;;;;;;;19.40;12.65;;;;;;;18.18;100.00;96725.06;5035884;28;20045;-65
2021/08/15 04:16:57;;;;;;;20.85;12.55;;;;;;;18.30;100.00;96720.97;5039038;28;20048;-66
2021/08/15 04:19:22;;;;;;;19.98;12.35;;;;;;;18.23;100.00;96719.06;5032886;28;20060;-67
2021/08/15 04:21:48;;;;;;;19.65;11.88;;;;;;;18.06;100.00;96720.88;5045539;28;20037;-66
2021/08/15 04:24:13;;;;;;;23.60;12.20;;;;;;;18.08;100.00;96712.16;5042181;28;20053;-65
2021/08/15 04:26:39;;;;;;;18.95;12.13;;;;;;;18.12;100.00;96715.66;5041742;28;20037;-66
2021/08/15 04:29:04;;;;;;;22.13;12.10;;;;;;;18.15;100.00;96718.38;5035611;28;20049;-66
2021/08/15 04:31:29;;;;;;;21.88;12.25;;;;;;;18.17;100.00;96719.94;5036607;28;20046;-66
2021/08/15 04:33:55;;;;;;;21.48;11.82;;;;;;;18.13;100.00;96712.47;5038228;28;20041;-66
2021/08/15 04:36:20;;;;;;;22.55;10.93;;;;;;;18.15;100.00;96712.06;5033740;28;20041;-66
2021/08/15 04:38:46;;;;;;;17.80;10.60;;;;;;;18.20;100.00;96705.25;5039165;28;20037;-66
2021/08/15 04:41:11;;;;;;;16.48;10.95;;;;;;;18.27;100.00;96707.94;5032164;28;20041;-66
2021/08/15 04:43:37;;;;;;;20.13;12.13;;;;;;;18.33;100.00;96697.97;5038334;28;20040;-66
2021/08/15 04:46:02;;;;;;;16.42;11.02;;;;;;;18.45;100.00;96702.13;5030772;28;20037;-67
2021/08/15 04:48:28;;;;;;;16.30;9.75;;;;;;;18.61;100.00;96713.38;5027539;28;20132;-66
2021/08/15 04:50:54;;;;;;;19.13;10.57;;;;;;;18.84;100.00;96709.09;5039158;28;20045;-66
2021/08/15 04:53:19;;;;;;;18.75;9.90;;;;;;;19.03;100.00;96696.47;5021612;28;20417;-66
2021/08/15 04:55:44;;;;;;;21.52;9.38;;;;;;;19.25;100.00;96702.47;5036813;28;20053;-66
2021/08/15 04:58:10;;;;;;;21.38;11.30;;;;;;;19.38;100.00;96719.28;5030266;28;20048;-66
2021/08/15 05:00:35;;;;;;;20.02;9.52;;;;;;;19.39;100.00;96710.53;5037431;28;20041;-65
2021/08/15 05:03:01;;;;;;;15.93;10.27;;;;;;;19.47;100.00;96703.63;5030593;28;20091;-66
2021/08/15 05:05:26;;;;;;;18.00;9.38;;;;;;;19.78;100.00;96711.78;5032374;28;20138;-66
2021/08/15 05:07:52;;;;;;;19.85;9.27;;;;;;;20.05;100.00;96713.63;5039641;28;20174;-67
2021/08/15 05:10:18;;;;;;;23.60;9.15;;;;;;;19.98;100.00;96708.22;5033667;28;20052;-66
2021/08/15 05:12:43;;;;;;;17.38;8.80;;;;;;;20.17;100.00;96715.00;5037933;28;20450;-66
2021/08/15 05:15:10;;;;;;;17.23;10.20;;;;;;;20.46;97.97;96709.56;5032202;28;20367;-67
2021/08/15 05:17:35;;;;;;;14.20;7.78;;;;;;;21.24;95.48;96708.91;5038266;28;20498;-66
2021/08/15 05:20:00;;;;;;;14.30;8.13;;;;;;;21.90;88.25;96706.75;5039864;28;20051;-65
2021/08/15 05:22:26;;;;;;;12.77;7.22;;;;;;;22.20;86.87;96715.06;5028106;28;20051;-65
2021/08/15 05:24:51;;;;;;;18.17;8.07;;;;;;;22.72;82.80;96708.31;5042483;28;20041;-65
2021/08/15 05:27:17;;;;;;;17.35;7.43;;;;;;;23.56;79.06;96712.78;5028918;28;20426;-66
2021/08/15 05:29:42;;;;;;;13.23;6.60;;;;;;;23.93;76.34;96701.88;5041742;28;20377;-65
2021/08/15 05:32:07;;;;;;;13.93;6.38;;;;;;;24.27;74.06;96703.78;5036106;28;20045;-67
2021/08/15 05:34:33;;;;;;;15.70;7.13;;;;;;;23.75;75.82;96708.09;5029974;28;20040;-65
2021/08/15 05:36:58;;;;;;;15.30;7.28;;;;;;;22.04;84.38;96697.22;5041224;28;20053;-66
2021/08/15 05:39:24;;;;;;;19.15;8.35;;;;;;;21.47;89.67;96707.94;5021155;28;20758;-66
2021/08/15 05:41:49;;;;;;;15.02;7.35;;;;;;;22.65;85.16;96706.56;5029475;28;20037;-66
2021/08/15 05:44:14;;;;;;;12.27;7.22;;;;;;;23.99;76.77;96706.44;5032246;28;20072;-66
2021/08/15 05:46:40;;;;;;;13.55;8.68;;;;;;;24.13;74.50;96698.72;5041347;28;20040;-67
2021/08/15 05:49:06;;;;;;;11.65;7.85;;;;;;;24.59;73.33;96701.81;5035311;28;20079;-67
2021/08/15 05:51:31;;;;;;;11.15;6.68;;;;;;;26.14;67.22;96698.91;5041483;28;20046;-64
2021/08/15 05:53:57;;;;;;;11.57;7.03;;;;;;;26.16;64.62;96701.25;5049999;28;20053;-65
2021/08/15 05:56:22;;;;;;;15.48;7.78;;;;;;;25.87;65.97;96694.84;5035271;28;20051;-65
2021/08/15 05:58:48;;;;;;;13.15;7.13;;;;;;;25.47;67.21;96704.22;5040011;28;20041;-65
2021/08/15 06:01:13;;;;;;;12.68;7.43;;;;;;;24.03;74.05;96701.47;5037061;28;20052;-65
2021/08/15 06:03:39;;;;;;;17.50;8.32;;;;;;;24.31;73.46;96695.25;5034785;28;20041;-64
2021/08/15 06:06:06;;;;;;;15.13;8.55;;;;;;;23.91;76.17;96696.72;5036705;28;20041;-67
2021/08/15 06:08:32;;;;;;;16.60;8.75;;;;;;;23.79;75.91;96686.38;5037816;28;20541;-67
2021/08/15 06:10:57;;;;;;;15.73;8.85;;;;;;;23.45;77.29;96696.38;5041038;28;20069;-65
2021/08/15 06:13:23;;;;;;;20.00;9.73;;;;;;;23.62;76.84;96691.38;5030010;28;20941;-66
2021/08/15 06:15:48;;;;;;;18.10;9.52;;;;;;;23.57;77.33;96687.16;5033126;28;20397;-67
2021/08/15 06:18:16;;;;;;;18.30;10.23;;;;;;;23.78;76.91;96690.41;5027613;28;20053;-67
2021/08/15 06:20:42;;;;;;;17.15;9.48;;;;;;;25.20;72.04;96690.94;5029955;28;20048;-67
2021/08/15 06:23:07;;;;;;;13.77;9.40;;;;;;;24.30;74.74;96686.09;5035134;28;20041;-67
2021/08/15 06:25:33;;;;;;;15.50;9.57;;;;;;;25.37;71.27;96681.03;5040729;28;20041;-67
2021/08/15 06:27:58;;;;;;;16.27;9.32;;;;;;;25.21;71.83;96681.28;5040618;28;20053;-66
2021/08/15 06:30:24;;;;;;;20.70;9.82;;;;;;;24.46;73.70;96681.50;5036063;28;20048;-67
2021/08/15 06:32:52;;;;;;;15.50;9.07;;;;;;;25.82;69.18;96683.50;5040879;28;20573;-68
2021/08/15 06:35:21;;;;;;;19.08;10.40;;;;;;;24.23;76.32;96687.13;5026132;28;20033;-65
2021/08/15 06:37:50;;;;;;;15.73;8.68;;;;;;;24.64;74.23;96680.84;5041641;28;20041;-66
2021/08/15 06:40:16;;;;;;;16.03;9.97;;;;;;;24.65;75.77;96679.56;5035805;28;20524;-66
2021/08/15 06:42:42;;;;;;;20.83;9.43;;;;;;;25.40;72.69;96675.72;5037964;28;20036;-65
2021/08/15 06:45:08;;;;;;;17.98;9.45;;;;;;;24.78;75.04;96686.63;5027644;28;20087;-66
2021/08/15 06:47:33;;;;;;;20.63;9.48;;;;;;;25.19;74.78;96684.56;5038780;28;20048;-66
2021/08/15 06:50:02;;;;;;;19.98;8.65;;;;;;;26.79;67.63;96687.47;5041210;28;20041;-66
2021/08/15 06:52:27;;;;;;;20.67;9.10;;;;;;;26.89;66.27;96678.53;5037010;28;20045;-64
2021/08/15 06:54:53;;;;;;;16.45;8.93;;;;;;;26.11;70.85;96680.22;5040769;28;20512;-64
2021/08/15 06:57:18;;;;;;;18.55;9.48;;;;;;;25.89;71.61;96681.16;5032356;28;20052;-65
2021/08/15 06:59:44;;;;;;;19.10;10.20;;;;;;;24.53;76.85;96681.25;5040373;28;20041;-66
2021/08/15 07:02:09;;;;;;;18.30;8.48;;;;;;;25.29;73.91;96676.94;5032897;28;20090;-66
2021/08/15 07:04:34;;;;;;;19.80;8.95;;;;;;;26.65;69.90;96680.50;5035206;28;20041;-66
2021/08/15 07:07:00;;;;;;;19.20;8.98;;;;;;;26.11;72.01;96683.03;5028480;28;20136;-66
2021/08/15 07:09:25;;;;;;;19.98;9.75;;;;;;;26.31;69.85;96666.41;5033818;28;20047;-66
2021/08/15 07:11:51;;;;;;;20.20;9.52;;;;;;;25.91;72.14;96669.44;5043451;28;20075;-65
2021/08/15 07:14:16;;;;;;;19.77;10.05;;;;;;;25.49;73.47;96670.88;5038810;28;20041;-65
2021/08/15 07:16:42;;;;;;;20.92;9.02;;;;;;;26.08;73.76;96672.72;5039210;28;20140;-65
2021/08/15 07:19:07;;;;;;;18.77;9.13;;;;;;;26.36;71.58;96672.63;5032885;28;20105;-65
2021/08/15 07:21:33;;;;;;;19.48;9.15;;;;;;;26.70;69.37;96680.66;5038929;28;20413;-64
2021/08/15 07:23:58;;;;;;;22.73;10.05;;;;;;;26.47;70.29;96673.69;5040455;28;20545;-65
2021/08/15 07:26:24;;;;;;;19.95;9.38;;;;;;;27.53;67.18;96676.56;5034846;28;20480;-65
2021/08/15 07:28:49;;;;;;;21.15;9.15;;;;;;;27.10;66.69;96678.72;5038012;28;20128;-65
2021/08/15 07:31:15;;;;;;;22.52;9.45;;;;;;;28.21;63.25;96680.63;5031125;28;20048;-65
2021/08/15 07:33:40;;;;;;;23.30;8.25;;;;;;;29.99;56.90;96678.50;5025848;28;20469;-65
2021/08/15 07:36:06;;;;;;;17.40;8.18;;;;;;;30.84;54.36;96685.66;5031041;28;20518;-65
2021/08/15 07:38:31;;;;;;;19.73;8.07;;;;;;;30.57;54.64;96678.53;5033772;28;20040;-65
2021/08/15 07:40:56;;;;;;;18.92;8.85;;;;;;;29.25;58.21;96674.06;5037422;28;20524;-65
2021/08/15 07:43:22;;;;;;;22.50;8.77;;;;;;;28.31;62.47;96672.88;5032619;28;20122;-63
2021/08/15 07:45:47;;;;;;;21.63;9.32;;;;;;;29.68;58.38;96668.66;5030677;28;20041;-65
2021/08/15 07:48:12;;;;;;;17.70;9.20;;;;;;;27.81;63.90;96665.84;5034479;28;20072;-64
2021/08/15 07:50:41;;;;;;;14.75;8.18;;;;;;;29.78;57.94;96672.91;5038429;28;20048;-64
2021/08/15 07:53:27;;;;;;;18.20;8.03;;;;;;;30.38;56.09;96675.28;5024465;28;20494;-64
2021/08/15 07:55:54;;;;;;;17.63;7.72;;;;;;;31.11;53.60;96672.22;5038088;28;20041;-64
2021/08/15 07:58:22;;;;;;;15.32;7.90;;;;;;;31.82;51.92;96677.94;5023255;28;20561;-65
2021/08/15 08:00:48;;;;;;;19.20;7.68;;;;;;;32.78;48.82;96682.97;5030293;28;20041;-64
2021/08/15 08:03:14;;;;;;;16.98;8.77;;;;;;;31.44;51.46;96680.88;5032264;28;20058;-65
2021/08/15 08:05:40;;;;;;;14.48;7.13;;;;;;;32.60;48.83;96682.19;5039019;28;20049;-64
2021/08/15 08:08:07;;;;;;;15.27;7.47;;;;;;;32.90;47.27;96684.47;5033714;28;20045;-64
2021/08/15 08:10:34;;;;;;;14.10;7.80;;;;;;;33.41;46.14;96682.31;5028950;28;21895;-65
2021/08/15 08:12:59;;;;;;;15.45;8.93;;;;;;;33.24;46.26;96676.69;5037080;28;20040;-64
2021/08/15 08:15:25;;;;;;;16.92;7.85;;;;;;;32.45;48.07;96673.13;5033574;28;20048;-64
2021/08/15 08:17:50;;;;;;;16.40;7.32;;;;;;;32.68;48.05;96669.06;5039070;28;20098;-65
2021/08/15 08:20:17;;;;;;;13.38;7.68;;;;;;;32.17;49.03;96659.75;5032125;28;20155;-64
2021/08/15 08:22:46;;;;;;;21.65;8.20;;;;;;;32.82;47.47;96666.44;5037905;28;20037;-65
2021/08/15 08:25:12;;;;;;;20.35;8.02;;;;;;;32.94;47.65;96660.22;5030993;28;20052;-64
2021/08/15 08:27:37;;;;;;;16.08;7.30;;;;;;;33.00;47.47;96651.72;5034998;28;20486;-65
2021/08/15 08:30:04;;;;;;;15.88;7.80;;;;;;;32.32;49.73;96657.44;5033998;28;20036;-61
2021/08/15 08:32:30;;;;;;;15.57;8.13;;;;;;;33.54;47.10;96653.34;5029743;28;20041;-64
2021/08/15 08:34:55;;;;;;;24.33;8.00;;;;;;;34.24;45.04;96651.16;5037911;28;20037;-65
2021/08/15 08:37:21;;;;;;;17.50;8.45;;;;;;;34.50;44.34;96649.16;5033242;28;20121;-64
2021/08/15 08:39:47;;;;;;;19.08;7.55;;;;;;;35.06;43.29;96642.16;5022105;28;20078;-65
2021/08/15 08:42:14;;;;;;;24.05;8.50;;;;;;;35.01;43.71;96638.84;5032765;28;20110;-66
2021/08/15 08:44:40;;;;;;;20.80;8.25;;;;;;;35.49;42.72;96639.34;5022129;28;20041;-65
2021/08/15 08:47:08;;;;;;;18.98;8.32;;;;;;;35.34;42.60;96636.16;5032472;28;20102;-65
2021/08/15 08:49:37;;;;;;;15.70;7.95;;;;;;;35.09;42.61;96633.31;4997725;28;1136771;-64
2021/08/15 08:52:04;;;;;;;18.58;8.30;;;;;;;34.43;44.24;96633.44;5037704;28;20501;-64
2021/08/15 08:54:31;;;;;;;16.38;8.88;;;;;;;33.82;45.61;96650.38;5037398;28;20178;-64
2021/08/15 08:56:57;;;;;;;21.98;8.82;;;;;;;34.20;45.38;96642.16;5042448;28;20075;-65
2021/08/15 08:59:23;;;;;;;17.38;8.38;;;;;;;34.27;44.68;96637.97;5038695;28;21042;-64
2021/08/15 09:01:49;;;;;;;18.33;8.23;;;;;;;34.54;43.73;96644.72;5040511;28;20037;-65
2021/08/15 09:04:14;;;;;;;16.08;8.30;;;;;;;33.96;45.31;96637.16;5032317;28;20040;-64
2021/08/15 09:06:40;;;;;;;23.63;9.25;;;;;;;34.35;44.50;96635.31;5042495;28;20037;-63
2021/08/15 09:09:14;;;;;;;19.30;9.75;;;;;;;33.10;47.35;96623.84;5037128;28;20402;-63
2021/08/15 09:11:41;;;;;;;18.88;9.93;;;;;;;32.25;48.74;96621.13;5042792;28;20049;-65
2021/08/15 09:14:13;;;;;;;15.98;8.85;;;;;;;31.40;52.19;96617.31;5036130;28;20037;-63
2021/08/15 09:17:04;;;;;;;21.88;9.55;;;;;;;32.34;49.94;96614.41;5042350;28;20041;-64
2021/08/15 09:19:32;;;;;;;24.05;8.57;;;;;;;33.04;47.71;96617.41;5037640;28;20037;-64
2021/08/15 09:22:15;;;;;;;16.55;8.70;;;;;;;33.84;45.47;96621.47;5039873;28;20048;-65
2021/08/15 09:25:11;;;;;;;18.25;9.15;;;;;;;34.52;44.04;96618.91;5032295;28;20047;-64
2021/08/15 09:27:55;;;;;;;14.73;8.07;;;;;;;32.33;49.41;96615.72;5034541;28;20143;-63
2021/08/15 09:30:26;;;;;;;23.60;9.30;;;;;;;33.90;45.38;96613.66;5037265;28;20098;-64
2021/08/15 09:32:56;;;;;;;24.52;8.32;;;;;;;33.55;46.72;96614.34;5042714;28;20025;-64
2021/08/15 09:35:38;;;;;;;16.55;8.77;;;;;;;33.99;45.82;96619.03;5027866;28;21417;-64
2021/08/15 09:38:14;;;;;;;16.95;8.27;;;;;;;33.24;47.26;96617.09;5032499;28;20045;-63
2021/08/15 09:40:46;;;;;;;15.32;8.20;;;;;;;33.45;47.74;96614.66;5038702;28;20073;-64
2021/08/15 09:43:22;;;;;;;16.35;8.48;;;;;;;33.16;48.53;96613.25;5035924;28;20040;-65
2021/08/15 09:45:49;;;;;;;23.05;8.90;;;;;;;32.84;49.52;96619.25;5034050;28;20509;-64
2021/08/15 09:48:19;;;;;;;16.27;8.43;;;;;;;32.23;50.91;96611.56;5036817;28;20048;-63
2021/08/15 09:51:01;;;;;;;17.90;8.80;;;;;;;33.38;48.24;96598.19;5041428;28;20067;-64
2021/08/15 09:53:27;;;;;;;15.68;9.07;;;;;;;33.09;47.37;96600.34;5038655;28;20133;-63
2021/08/15 09:55:52;;;;;;;14.88;8.70;;;;;;;33.72;47.01;96603.72;5027877;28;20135;-65
2021/08/15 09:58:18;;;;;;;23.52;8.95;;;;;;;34.25;45.43;96600.75;5033568;28;20088;-64
2021/08/15 10:00:44;;;;;;;13.48;7.45;;;;;;;34.50;44.97;96590.19;5035569;28;20455;-64
2021/08/15 10:03:10;;;;;;;16.70;7.90;;;;;;;34.85;43.65;96588.59;5033477;28;20535;-64
2021/08/15 10:05:35;;;;;;;13.82;7.57;;;;;;;35.05;44.24;96581.63;5038502;28;20144;-65
2021/08/15 10:08:02;;;;;;;14.25;7.68;;;;;;;35.19;43.55;96574.75;5041809;28;20044;-65
2021/08/15 10:10:28;;;;;;;16.70;7.35;;;;;;;34.53;44.82;96582.69;5036694;28;20632;-65
2021/08/15 10:12:53;;;;;;;13.23;7.25;;;;;;;35.47;43.02;96567.16;5040667;28;20105;-64
2021/08/15 10:15:19;;;;;;;12.57;6.88;;;;;;;35.08;42.91;96566.34;5031722;28;20127;-64
2021/08/15 10:17:49;;;;;;;13.30;7.22;;;;;;;34.62;44.40;96554.66;5032949;28;20056;-64
2021/08/15 10:20:21;;;;;;;11.93;6.72;;;;;;;34.36;44.82;96558.03;5036346;28;20040;-64
2021/08/15 10:22:49;;;;;;;14.52;7.93;;;;;;;33.58;47.56;96556.53;5039844;28;20135;-64
2021/08/15 10:25:34;;;;;;;15.82;8.52;;;;;;;33.49;48.10;96546.25;5018125;28;20133;-63
2021/08/15 10:28:00;;;;;;;16.15;8.80;;;;;;;33.49;47.97;96554.78;5040275;28;20239;-63
2021/08/15 10:30:32;;;;;;;16.90;9.02;;;;;;;33.00;48.80;96554.50;5034997;28;20072;-65
2021/08/15 10:32:57;;;;;;;14.85;8.88;;;;;;;33.15;48.62;96546.44;5041290;28;20454;-64
2021/08/15 10:35:31;;;;;;;20.88;8.43;;;;;;;33.32;47.93;96549.22;5035534;28;20052;-64
2021/08/15 10:38:01;;;;;;;24.30;8.90;;;;;;;33.05;48.76;96548.78;5040204;28;20079;-65
2021/08/15 10:40:42;;;;;;;14.63;8.70;;;;;;;33.12;48.30;96541.81;5035214;28;20041;-64
2021/08/15 10:43:23;;;;;;;19.17;9.45;;;;;;;32.37;49.51;96536.88;5023694;28;20055;-63
2021/08/15 10:46:11;;;;;;;15.80;8.48;;;;;;;31.63;51.00;96531.19;5040903;28;20102;-64
2021/08/15 10:49:08;;;;;;;21.55;9.75;;;;;;;32.40;49.68;96518.84;5040734;28;20044;-65
2021/08/15 10:51:49;;;;;;;18.70;11.88;;;;;;;32.26;49.90;96526.31;5039825;28;20550;-64
2021/08/15 10:54:38;;;;;;;18.75;9.43;;;;;;;32.31;50.19;96534.03;5033464;28;20173;-64
2021/08/15 10:57:04;;;;;;;19.48;9.07;;;;;;;32.42;48.97;96524.75;5020558;28;20080;-63
2021/08/15 10:59:40;;;;;;;23.25;12.05;;;;;;;32.29;49.08;96530.19;5028190;28;20037;-64
2021/08/15 11:02:13;;;;;;;22.52;11.13;;;;;;;32.08;49.81;96533.28;5031907;28;20071;-65
2021/08/15 11:04:41;;;;;;;19.63;9.20;;;;;;;31.44;52.08;96528.06;5023251;28;20041;-65
2021/08/15 11:07:06;;;;;;;24.25;10.65;;;;;;;31.74;51.89;96521.16;5035172;28;20086;-64
2021/08/15 11:09:56;;;;;;;16.98;10.30;;;;;;;31.72;52.27;96518.09;5022750;28;20037;-65
2021/08/15 11:12:22;;;;;;;19.83;8.65;;;;;;;31.55;52.69;96513.19;5017198;28;20716;-63
2021/08/15 11:15:06;;;;;;;21.67;10.90;;;;;;;31.79;53.28;96509.84;5032754;28;20041;-64
2021/08/15 11:17:33;;;;;;;16.73;10.68;;;;;;;31.81;53.34;96501.59;5029760;28;20037;-65
2021/08/15 11:20:33;;;;;;;21.23;10.00;;;;;;;31.72;54.25;96493.38;5039391;28;20076;-65